createdAt,value
2023-05-14T00:01:14.143Z,29.45
2023-05-14T00:04:02.068Z,38.30
2023-05-14T00:06:47.424Z,30.70
2023-05-14T00:09:33.311Z,36.53
2023-05-14T00:12:18.791Z,34.90
2023-05-14T00:15:04.754Z,28.05
2023-05-14T00:17:49.928Z,36.45
2023-05-14T00:20:35.659Z,34.30
2023-05-14T00:23:22.784Z,29.25
2023-05-14T00:26:11.467Z,32.30
2023-05-14T00:28:57.701Z,35.17
2023-05-14T00:34:28.733Z,26.40
2023-05-14T00:37:16.119Z,29.08
2023-05-14T00:40:06.868Z,29.95
2023-05-14T00:42:52.837Z,30.08
2023-05-14T00:45:40.542Z,33.28
2023-05-14T00:48:26.600Z,26.35
2023-05-14T00:51:12.155Z,29.88
2023-05-14T00:53:57.774Z,30.75
2023-05-14T00:56:47.197Z,31.55
2023-05-14T00:59:33.227Z,26.48
2023-05-14T01:02:18.928Z,35.53
2023-05-14T01:05:05.773Z,31.05
2023-05-14T01:08:09.790Z,28.67
2023-05-14T01:11:28.515Z,28.60
2023-05-14T01:14:46.471Z,29.80
2023-05-14T01:17:37.435Z,32.65
2023-05-14T01:20:26.057Z,33.50
2023-05-14T01:23:12.926Z,34.05
2023-05-14T01:25:58.402Z,34.60
2023-05-14T01:28:44.449Z,29.77
2023-05-14T01:31:32.245Z,29.50
2023-05-14T01:34:22.868Z,36.50
2023-05-14T01:37:10.137Z,43.90
2023-05-14T01:39:56.729Z,28.50
2023-05-14T01:42:43.868Z,39.00
2023-05-14T01:45:30.884Z,31.55
2023-05-14T01:48:16.653Z,32.33
2023-05-14T01:51:02.765Z,33.05
2023-05-14T01:53:48.420Z,32.05
2023-05-14T01:56:33.772Z,34.33
2023-05-14T01:59:18.909Z,36.63
2023-05-14T02:02:05.843Z,35.63
2023-05-14T02:04:55.523Z,34.20
2023-05-14T02:07:45.960Z,30.88
2023-05-14T02:10:31.525Z,34.20
2023-05-14T02:13:17.057Z,29.00
2023-05-14T02:16:02.708Z,36.17
2023-05-14T02:18:49.849Z,33.03
2023-05-14T02:21:35.509Z,37.25
2023-05-14T02:24:21.490Z,36.90
2023-05-14T02:27:06.890Z,32.30
2023-05-14T02:29:53.182Z,32.45
2023-05-14T02:32:41.929Z,34.75
2023-05-14T02:35:29.494Z,41.50
2023-05-14T02:38:15.125Z,35.50
2023-05-14T02:41:00.308Z,43.42
2023-05-14T02:43:46.441Z,41.58
2023-05-14T02:46:32.981Z,39.95
2023-05-14T02:49:20.291Z,45.78
2023-05-14T02:52:06.305Z,49.53
2023-05-14T02:54:52.119Z,43.78
2023-05-14T02:57:37.560Z,45.53
2023-05-14T03:00:23.175Z,49.28
2023-05-14T03:03:09.192Z,47.28
2023-05-14T03:05:55.920Z,51.80
2023-05-14T03:08:42.277Z,49.45
2023-05-14T03:11:35.090Z,57.90
2023-05-14T03:14:20.297Z,52.22
2023-05-14T03:17:05.937Z,53.00
2023-05-14T03:19:51.316Z,54.28
2023-05-14T03:22:37.840Z,54.28
2023-05-14T03:25:23.249Z,57.88
2023-05-14T03:28:11.894Z,51.47
2023-05-14T03:31:00.013Z,51.88
2023-05-14T03:33:47.554Z,53.17
2023-05-14T03:36:36.253Z,57.35
2023-05-14T03:39:23.178Z,60.72
2023-05-14T03:42:08.679Z,54.97
2023-05-14T03:44:55.542Z,49.47
2023-05-14T03:47:41.533Z,57.00
2023-05-14T03:50:28.484Z,51.75
2023-05-14T03:53:14.897Z,50.40
2023-05-14T03:56:00.991Z,48.30
2023-05-14T03:58:46.210Z,51.90
2023-05-14T04:01:35.785Z,59.53
2023-05-14T04:04:24.219Z,49.85
2023-05-14T04:07:16.718Z,52.88
2023-05-14T04:10:04.681Z,52.03
2023-05-14T04:12:53.074Z,49.45
2023-05-14T04:15:39.491Z,47.08
2023-05-14T04:18:25.287Z,48.70
2023-05-14T04:21:16.371Z,44.75
2023-05-14T04:24:04.889Z,41.95
2023-05-14T04:26:54.318Z,46.85
2023-05-14T04:29:43.851Z,46.97
2023-05-14T04:32:30.445Z,40.75
2023-05-14T04:35:17.612Z,45.95
2023-05-14T04:38:04.834Z,42.35
2023-05-14T04:40:50.536Z,38.83
2023-05-14T04:43:37.269Z,39.33
2023-05-14T04:46:23.378Z,42.42
2023-05-14T04:49:09.074Z,39.72
2023-05-14T04:51:54.741Z,41.25
2023-05-14T04:54:40.725Z,34.63
2023-05-14T04:57:29.308Z,40.42
2023-05-14T05:00:18.250Z,39.60
2023-05-14T05:03:04.935Z,36.95
2023-05-14T05:05:52.344Z,38.42
2023-05-14T05:08:38.598Z,41.30
2023-05-14T05:11:24.028Z,46.25
2023-05-14T05:14:10.637Z,42.90
2023-05-14T05:16:56.278Z,38.42
2023-05-14T05:19:44.118Z,45.47
2023-05-14T05:22:30.172Z,44.10
2023-05-14T05:25:15.702Z,39.92
2023-05-14T05:28:01.302Z,44.20
2023-05-14T05:30:47.541Z,44.22
2023-05-14T05:33:33.745Z,43.85
2023-05-14T05:36:20.973Z,43.13
2023-05-14T05:39:06.617Z,47.88
2023-05-14T05:41:59.580Z,40.63
2023-05-14T05:44:46.472Z,50.05
2023-05-14T05:47:32.142Z,46.35
2023-05-14T05:50:19.770Z,43.33
2023-05-14T05:53:05.560Z,41.13
2023-05-14T05:55:51.748Z,48.80
2023-05-14T05:58:39.224Z,48.03
2023-05-14T06:01:25.194Z,37.70
2023-05-14T06:04:13.846Z,45.35
2023-05-14T06:07:00.298Z,46.63
2023-05-14T06:09:45.927Z,48.85
2023-05-14T06:12:32.396Z,48.67
2023-05-14T06:15:18.478Z,42.53
2023-05-14T06:18:04.101Z,48.97
2023-05-14T06:20:49.400Z,47.75
2023-05-14T06:23:37.573Z,43.10
2023-05-14T06:26:23.792Z,37.65
2023-05-14T06:29:11.968Z,41.03
2023-05-14T06:32:01.684Z,44.45
2023-05-14T06:34:47.692Z,42.03
2023-05-14T06:37:33.286Z,41.85
2023-05-14T06:40:20.428Z,45.53
2023-05-14T06:43:06.684Z,39.17
2023-05-14T06:45:52.553Z,40.88
2023-05-14T06:48:37.922Z,37.38
2023-05-14T06:51:23.280Z,39.95
2023-05-14T06:54:11.675Z,45.83
2023-05-14T06:56:57.413Z,38.83
2023-05-14T06:59:47.217Z,37.95
2023-05-14T07:02:35.282Z,36.83
2023-05-14T07:05:24.012Z,37.53
2023-05-14T07:08:09.219Z,41.35
2023-05-14T07:10:54.532Z,35.28
2023-05-14T07:13:40.881Z,35.15
2023-05-14T07:16:26.972Z,37.22
2023-05-14T07:19:13.193Z,31.30
2023-05-14T07:21:58.877Z,32.85
2023-05-14T07:24:44.524Z,32.72
2023-05-14T07:27:30.037Z,26.65
2023-05-14T07:30:15.569Z,28.95
2023-05-14T07:33:01.470Z,27.83
2023-05-14T07:35:47.044Z,28.30
2023-05-14T07:38:32.703Z,26.33
2023-05-14T07:41:18.726Z,28.08
2023-05-14T07:44:05.039Z,32.13
2023-05-14T07:46:50.787Z,30.92
2023-05-14T07:49:36.130Z,26.67
2023-05-14T07:52:21.540Z,31.50
2023-05-14T07:55:07.401Z,24.35
2023-05-14T07:58:15.203Z,27.60
2023-05-14T08:00:58.685Z,26.45
2023-05-14T08:03:44.244Z,23.52
2023-05-14T08:06:29.575Z,28.95
2023-05-14T08:09:15.299Z,24.13
2023-05-14T08:12:03.646Z,25.98
2023-05-14T08:14:49.400Z,23.00
2023-05-14T08:17:34.940Z,21.98
2023-05-14T08:20:20.503Z,23.02
2023-05-14T08:23:07.582Z,28.17
2023-05-14T08:25:52.889Z,18.65
2023-05-14T08:28:38.009Z,23.08
2023-05-14T08:31:23.655Z,26.80
2023-05-14T08:34:09.256Z,20.73
2023-05-14T08:36:57.505Z,24.60
2023-05-14T08:39:42.644Z,26.08
2023-05-14T08:42:29.246Z,21.38
2023-05-14T08:45:25.639Z,25.38
2023-05-14T08:48:18.458Z,23.30
2023-05-14T08:51:04.009Z,22.60
2023-05-14T08:53:49.359Z,20.95
2023-05-14T08:56:35.890Z,22.27
2023-05-14T08:59:21.384Z,18.65
2023-05-14T09:02:08.689Z,24.50
2023-05-14T09:04:57.067Z,25.67
2023-05-14T09:07:42.552Z,18.90
2023-05-14T09:10:27.840Z,18.58
2023-05-14T09:13:13.539Z,21.50
2023-05-14T09:16:00.050Z,19.67
2023-05-14T09:18:45.914Z,15.93
2023-05-14T09:21:33.537Z,23.30
2023-05-14T09:24:24.119Z,23.70
2023-05-14T09:27:15.677Z,19.88
2023-05-14T09:30:12.550Z,21.10
2023-05-14T09:32:57.621Z,26.27
2023-05-14T09:35:43.410Z,20.23
2023-05-14T09:38:33.697Z,20.27
2023-05-14T09:41:19.248Z,19.98
2023-05-14T09:44:06.680Z,25.58
2023-05-14T09:46:53.708Z,24.23
2023-05-14T09:49:40.168Z,22.23
2023-05-14T09:52:25.963Z,24.08
2023-05-14T09:55:11.347Z,26.20
2023-05-14T09:57:56.593Z,26.05
2023-05-14T10:00:46.240Z,23.52
2023-05-14T10:03:32.399Z,19.83
2023-05-14T10:06:19.216Z,25.02
2023-05-14T10:09:09.000Z,17.17
2023-05-14T10:11:59.780Z,22.45
2023-05-14T10:14:53.333Z,20.13
2023-05-14T10:17:43.246Z,25.30
2023-05-14T10:20:31.822Z,17.98
2023-05-14T10:23:18.159Z,20.75
2023-05-14T10:26:04.250Z,18.25
2023-05-14T10:28:49.640Z,23.83
2023-05-14T10:31:55.482Z,20.70
2023-05-14T10:34:44.077Z,16.50
2023-05-14T10:37:30.813Z,18.63
2023-05-14T10:40:18.869Z,16.60
2023-05-14T10:43:04.881Z,17.95
2023-05-14T10:45:50.494Z,17.02
2023-05-14T10:48:39.071Z,17.63
2023-05-14T10:51:27.003Z,15.00
2023-05-14T10:54:12.792Z,16.20
2023-05-14T10:56:59.838Z,13.57
2023-05-14T10:59:47.464Z,21.25
2023-05-14T11:02:37.851Z,17.15
2023-05-14T11:05:23.809Z,16.05
2023-05-14T11:08:10.308Z,16.48
2023-05-14T11:10:56.158Z,14.35
2023-05-14T11:13:42.592Z,15.32
2023-05-14T11:16:32.315Z,21.77
2023-05-14T11:19:22.057Z,11.95
2023-05-14T11:22:07.984Z,18.20
2023-05-14T11:24:54.585Z,15.73
2023-05-14T11:27:41.964Z,17.77
2023-05-14T11:30:27.371Z,10.32
2023-05-14T11:33:14.088Z,10.70
2023-05-14T11:36:01.625Z,16.08
2023-05-14T11:38:49.141Z,12.10
2023-05-14T11:41:34.896Z,14.55
2023-05-14T11:44:20.394Z,13.70
2023-05-14T11:47:06.554Z,13.05
2023-05-14T11:49:52.710Z,11.93
2023-05-14T11:52:40.252Z,11.68
2023-05-14T11:55:30.391Z,10.38
2023-05-14T11:58:17.132Z,9.88
2023-05-14T12:01:02.453Z,12.93
2023-05-14T12:03:48.184Z,13.90
2023-05-14T12:06:33.940Z,13.73
2023-05-14T12:09:20.400Z,11.00
2023-05-14T12:12:12.924Z,17.20
2023-05-14T12:15:01.610Z,11.40
2023-05-14T12:17:51.701Z,14.25
2023-05-14T12:20:37.363Z,9.38
2023-05-14T12:23:41.160Z,10.95
2023-05-14T12:26:29.648Z,16.27
2023-05-14T12:29:16.061Z,9.98
2023-05-14T12:32:04.616Z,11.68
2023-05-14T12:34:50.368Z,10.65
2023-05-14T12:37:40.030Z,11.77
2023-05-14T12:40:26.424Z,13.75
2023-05-14T12:43:11.849Z,12.05
2023-05-14T12:45:57.160Z,14.95
2023-05-14T12:48:42.592Z,18.90
2023-05-14T12:51:28.266Z,14.32
2023-05-14T12:54:15.733Z,17.98
2023-05-14T12:57:03.761Z,12.93
2023-05-14T12:59:49.460Z,15.90
2023-05-14T13:02:42.751Z,16.25
2023-05-14T13:05:28.813Z,15.75
2023-05-14T13:08:18.066Z,14.68
2023-05-14T13:11:06.397Z,14.75
2023-05-14T13:13:52.109Z,18.83
2023-05-14T13:16:37.427Z,14.40
2023-05-14T13:19:22.855Z,17.17
2023-05-14T13:22:08.420Z,14.55
2023-05-14T13:24:54.315Z,12.13
2023-05-14T13:27:39.785Z,14.13
2023-05-14T13:30:25.149Z,16.05
2023-05-14T13:33:10.543Z,17.33
2023-05-14T13:35:55.884Z,19.48
2023-05-14T13:38:41.431Z,12.15
2023-05-14T13:41:29.985Z,19.60
2023-05-14T13:44:15.215Z,16.45
2023-05-14T13:47:00.438Z,16.17
2023-05-14T13:49:45.898Z,18.02
2023-05-14T13:52:31.263Z,15.68
2023-05-14T13:55:17.285Z,21.23
2023-05-14T13:58:03.312Z,13.70
2023-05-14T14:00:50.475Z,20.25
2023-05-14T14:03:36.099Z,13.68
2023-05-14T14:06:21.493Z,17.05
2023-05-14T14:09:06.791Z,15.02
2023-05-14T14:11:52.474Z,19.08
2023-05-14T14:14:37.977Z,16.27
2023-05-14T14:17:23.590Z,15.98
2023-05-14T14:20:10.102Z,17.50
2023-05-14T14:22:56.074Z,16.67
2023-05-14T14:25:41.484Z,21.00
2023-05-14T14:28:26.855Z,13.07
2023-05-14T14:31:12.723Z,17.85
2023-05-14T14:33:58.090Z,16.67
2023-05-14T14:36:43.559Z,14.50
2023-05-14T14:39:29.006Z,15.38
2023-05-14T14:42:14.444Z,17.63
2023-05-14T14:45:00.203Z,17.58
2023-05-14T14:47:49.119Z,19.75
2023-05-14T14:50:34.368Z,13.75
2023-05-14T14:53:20.742Z,26.25
2023-05-14T14:56:06.305Z,15.35
2023-05-14T14:58:51.516Z,11.75
2023-05-14T15:01:39.637Z,15.43
2023-05-14T15:04:50.197Z,13.63
2023-05-14T15:07:35.817Z,18.90
2023-05-14T15:10:20.969Z,16.35
2023-05-14T15:13:07.063Z,13.07
2023-05-14T15:15:52.710Z,15.02
2023-05-14T15:18:38.273Z,15.55
2023-05-14T15:21:23.721Z,13.85
2023-05-14T15:24:15.476Z,16.92
2023-05-14T15:27:01.204Z,22.40
2023-05-14T15:29:46.787Z,14.40
2023-05-14T15:32:34.771Z,16.00
2023-05-14T15:35:20.206Z,14.50
2023-05-14T15:38:06.895Z,13.50
2023-05-14T15:40:52.068Z,12.52
2023-05-14T15:43:37.460Z,21.05
2023-05-14T15:46:23.955Z,14.38
2023-05-14T15:49:11.440Z,14.80
2023-05-14T15:51:57.113Z,15.10
2023-05-14T15:54:42.550Z,15.18
2023-05-14T15:57:28.046Z,13.48
2023-05-14T16:00:14.362Z,16.95
2023-05-14T16:02:59.945Z,15.70
2023-05-14T16:05:45.409Z,14.95
2023-05-14T16:08:30.806Z,16.77
2023-05-14T16:11:19.178Z,15.52
2023-05-14T16:14:04.542Z,14.27
2023-05-14T16:16:50.109Z,13.13
2023-05-14T16:19:35.629Z,15.35
2023-05-14T16:22:21.029Z,14.65
2023-05-14T16:25:06.406Z,13.68
2023-05-14T16:27:52.250Z,11.63
2023-05-14T16:30:40.271Z,16.42
2023-05-14T16:33:25.502Z,15.27
2023-05-14T16:36:11.082Z,15.23
2023-05-14T16:39:07.210Z,16.98
2023-05-14T16:41:53.687Z,15.38
2023-05-14T16:44:43.992Z,22.27
2023-05-14T16:47:29.566Z,17.55
2023-05-14T16:50:15.169Z,13.88
2023-05-14T16:53:00.816Z,13.60
2023-05-14T16:55:46.572Z,17.88
2023-05-14T16:58:31.913Z,16.48
2023-05-14T17:01:17.465Z,15.82
2023-05-14T17:04:02.800Z,14.55
2023-05-14T17:06:48.544Z,16.52
2023-05-14T17:09:33.885Z,20.35
2023-05-14T17:12:19.304Z,15.43
2023-05-14T17:15:07.263Z,19.48
2023-05-14T17:17:53.414Z,23.45
2023-05-14T17:20:39.168Z,21.40
2023-05-14T17:23:24.755Z,16.67
2023-05-14T17:26:11.954Z,16.50
2023-05-14T17:28:57.531Z,20.92
2023-05-14T17:31:45.810Z,16.48
2023-05-14T17:34:32.450Z,19.67
2023-05-14T17:37:18.100Z,15.02
2023-05-14T17:40:04.877Z,16.98
2023-05-14T17:42:50.936Z,15.73
2023-05-14T17:45:46.248Z,22.13
2023-05-14T17:48:39.219Z,13.45
2023-05-14T17:51:24.570Z,15.68
2023-05-14T17:54:09.973Z,17.90
2023-05-14T17:56:55.820Z,13.70
2023-05-14T17:59:41.319Z,18.63
2023-05-14T18:02:26.806Z,13.32
2023-05-14T18:05:37.192Z,19.83
2023-05-14T18:08:22.430Z,14.68
2023-05-14T18:11:07.807Z,14.65
2023-05-14T18:13:53.152Z,18.38
2023-05-14T18:16:38.938Z,12.70
2023-05-14T18:19:24.771Z,14.35
2023-05-14T18:22:09.786Z,18.83
2023-05-14T18:24:55.265Z,14.10
2023-05-14T18:27:44.347Z,18.42
2023-05-14T18:30:29.938Z,13.43
2023-05-14T18:33:15.212Z,14.90
2023-05-14T18:36:01.421Z,15.93
2023-05-14T18:38:46.748Z,17.20
2023-05-14T18:41:31.868Z,18.55
2023-05-14T18:44:17.279Z,16.08
2023-05-14T18:47:02.644Z,16.90
2023-05-14T18:49:50.230Z,17.08
2023-05-14T18:52:35.710Z,13.55
2023-05-14T18:55:21.091Z,18.75
2023-05-14T18:58:08.695Z,17.40
2023-05-14T19:00:54.024Z,16.13
2023-05-14T19:03:41.913Z,17.42
2023-05-14T19:06:27.608Z,17.15
2023-05-14T19:09:14.644Z,19.63
2023-05-14T19:11:59.831Z,15.80
2023-05-14T19:14:45.365Z,23.30
2023-05-14T19:17:33.893Z,17.50
2023-05-14T19:20:19.499Z,21.42
2023-05-14T19:23:05.190Z,17.50
2023-05-14T19:25:50.350Z,18.90
2023-05-14T19:28:37.819Z,21.38
2023-05-14T19:31:23.271Z,15.75
2023-05-14T19:34:08.864Z,25.05
2023-05-14T19:36:54.039Z,16.83
2023-05-14T19:39:39.425Z,16.23
2023-05-14T19:42:25.350Z,19.58
2023-05-14T19:45:11.335Z,18.25
2023-05-14T19:47:56.929Z,21.33
2023-05-14T19:50:42.115Z,18.65
2023-05-14T19:53:30.635Z,18.02
2023-05-14T19:56:16.628Z,18.70
2023-05-14T19:59:02.413Z,25.85
2023-05-14T20:01:50.334Z,18.40
2023-05-14T20:04:35.762Z,15.65
2023-05-14T20:07:21.530Z,20.35
2023-05-14T20:10:08.008Z,20.52
2023-05-14T20:12:53.612Z,21.98
2023-05-14T20:15:40.184Z,20.45
2023-05-14T20:18:26.195Z,19.67
2023-05-14T20:21:12.025Z,19.67
2023-05-14T20:23:57.677Z,17.85
2023-05-14T20:26:45.738Z,21.02
2023-05-14T20:29:31.272Z,18.70
2023-05-14T20:32:16.555Z,24.65
2023-05-14T20:35:02.361Z,20.65
2023-05-14T20:37:49.613Z,19.92
2023-05-14T20:40:35.139Z,19.63
2023-05-14T20:43:25.180Z,22.10
2023-05-14T20:46:13.480Z,20.92
2023-05-14T20:49:00.881Z,22.23
2023-05-14T20:51:46.241Z,23.10
2023-05-14T20:54:31.822Z,26.17
2023-05-14T20:57:18.976Z,25.38
2023-05-14T21:00:08.018Z,20.20
2023-05-14T21:02:53.975Z,25.90
2023-05-14T21:05:41.528Z,27.95
2023-05-14T21:08:27.500Z,37.30
2023-05-14T21:11:13.016Z,30.95
2023-05-14T21:13:58.596Z,29.58
2023-05-14T21:16:44.269Z,29.40
2023-05-14T21:19:29.872Z,26.35
2023-05-14T21:22:18.272Z,30.00
2023-05-14T21:25:04.193Z,37.03
2023-05-14T21:27:49.586Z,30.70
2023-05-14T21:30:34.975Z,34.75
2023-05-14T21:33:20.834Z,33.13
2023-05-14T21:36:07.526Z,31.75
2023-05-14T21:38:53.926Z,35.38
2023-05-14T21:41:39.452Z,33.20
2023-05-14T21:44:24.553Z,36.38
2023-05-14T21:47:10.220Z,35.05
2023-05-14T21:49:56.129Z,34.22
2023-05-14T21:52:41.471Z,40.03
2023-05-14T21:55:27.841Z,42.42
2023-05-14T21:58:13.754Z,47.50
2023-05-14T22:00:59.154Z,48.35
2023-05-14T22:03:44.574Z,50.67
2023-05-14T22:06:29.955Z,48.38
2023-05-14T22:09:15.437Z,45.50
2023-05-14T22:12:00.978Z,45.75
2023-05-14T22:14:46.477Z,56.55
2023-05-14T22:17:32.824Z,46.15
2023-05-14T22:20:18.274Z,54.50
2023-05-14T22:23:03.628Z,51.55
2023-05-14T22:25:48.958Z,43.78
2023-05-14T22:28:40.018Z,57.33
2023-05-14T22:31:25.483Z,52.78
2023-05-14T22:34:10.936Z,51.65
2023-05-14T22:36:56.265Z,53.15
2023-05-14T22:39:42.407Z,54.20
2023-05-14T22:42:28.645Z,59.78
2023-05-14T22:45:15.638Z,62.67
2023-05-14T22:48:01.200Z,57.10
2023-05-14T22:50:46.649Z,55.58
2023-05-14T22:53:32.117Z,62.38
2023-05-14T22:56:17.740Z,53.85
2023-05-14T22:59:03.268Z,59.45
2023-05-14T23:01:48.828Z,60.85
2023-05-14T23:04:37.004Z,66.32
2023-05-14T23:07:25.631Z,70.13
2023-05-14T23:10:11.344Z,64.03
2023-05-14T23:12:56.996Z,64.68
2023-05-14T23:15:43.728Z,58.28
2023-05-14T23:18:29.174Z,64.95
2023-05-14T23:21:15.282Z,64.03
2023-05-14T23:24:01.071Z,65.03
2023-05-14T23:26:46.222Z,57.63
2023-05-14T23:29:34.488Z,70.30
2023-05-14T23:32:19.714Z,70.10
2023-05-14T23:35:05.720Z,70.78
2023-05-14T23:37:51.938Z,72.55
2023-05-14T23:40:37.783Z,82.55
2023-05-14T23:43:23.601Z,78.43
2023-05-14T23:46:09.111Z,73.28
2023-05-14T23:48:57.011Z,80.72
2023-05-14T23:51:42.334Z,73.32
2023-05-14T23:54:27.696Z,72.57
2023-05-14T23:57:14.621Z,77.55
